Overview Statistics Trail Chart Weather Telemetry Raw packets
 

This is the latest recevied weather packets stored in our database for station/object KRYY. If no packets are shown the sender has not sent any weather packets the latest 10 day(s).

<< 40 41 42 43 44 45 46 >>
Time Temp. Humidity Pressure Rain* Wind** Luminosity Snow
1788044017 28.89° C 66% 1020 hPa - - - -
1788043414 30.56° C 55% 1019.6 hPa - - - -
1788042820 30.56° C 55% 1019.6 hPa - - - -
1788042215 30.56° C 55% 1019.6 hPa - - - -
1788041618 30.56° C 55% 1019.6 hPa - - - -
1788041015 30.56° C 55% 1019.6 hPa - - - -
1788040417 30.56° C 55% 1019.6 hPa - - - -
1788039815 27.78° C 74% 1020 hPa - - - -
1788039216 27.78° C 74% 1020 hPa - - - -
1788038617 27.78° C 74% 1020 hPa - - - -
1788038014 27.78° C 74% 1020 hPa - - - -
1788037416 27.78° C 74% 1020 hPa - - - -
1788036819 27.78° C 74% 1020 hPa - - - -
1788036213 25° C 83% 1021 hPa - - - -
1788035617 25° C 83% 1021 hPa - - - -
1788035017 25° C 83% 1021 hPa - - - -
1788034416 25° C 83% 1021 hPa - - - -
1788033820 25° C 83% 1021 hPa - - - -
1788033215 25° C 83% 1021 hPa - - - -
1788032618 30.56° C 58% 1021 hPa - - - -
1788032015 30.56° C 58% 1021 hPa - - - -
1788031417 30.56° C 58% 1021 hPa - - - -
1788030815 30.56° C 58% 1021 hPa - - - -
1788030215 30.56° C 58% 1021 hPa - - - -
1788029618 28.89° C 62% 1021.3 hPa - - - -

* Rain since midnight (hover to see other rain measurements)
** Current wind speed in m/s (hover to see current wind gust speed)